sensor_id;sensor_type;location;lat;lon;timestamp;pressure;altitude;pressure_sealevel;temperature;humidity
7474;BME280;3778;42.572;23.426;2023-03-25T00:01:38;94909.91;;;-146.70;66.62
7474;BME280;3778;42.572;23.426;2023-03-25T00:04:05;94907.81;;;-146.70;66.79
7474;BME280;3778;42.572;23.426;2023-03-25T00:06:32;94907.81;;;-146.70;67.32
7474;BME280;3778;42.572;23.426;2023-03-25T00:08:59;94924.50;;;-146.70;67.46
7474;BME280;3778;42.572;23.426;2023-03-25T00:11:29;94907.81;;;-146.70;67.62
7474;BME280;3778;42.572;23.426;2023-03-25T00:13:56;94947.41;;;-146.70;67.67
7474;BME280;3778;42.572;23.426;2023-03-25T00:16:23;94912.00;;;-146.70;67.36
7474;BME280;3778;42.572;23.426;2023-03-25T00:18:49;94907.81;;;-146.70;67.08
7474;BME280;3778;42.572;23.426;2023-03-25T00:21:16;94912.00;;;-146.70;67.47
7474;BME280;3778;42.572;23.426;2023-03-25T00:23:43;94949.50;;;-146.70;67.46
7474;BME280;3778;42.572;23.426;2023-03-25T00:26:10;94934.91;;;-146.70;67.18
7474;BME280;3778;42.572;23.426;2023-03-25T00:28:38;94939.09;;;-146.70;67.49
7474;BME280;3778;42.572;23.426;2023-03-25T00:31:07;94949.50;;;-146.70;67.42
7474;BME280;3778;42.572;23.426;2023-03-25T00:33:34;94949.50;;;-146.70;67.44
7474;BME280;3778;42.572;23.426;2023-03-25T00:36:02;94953.66;;;-146.70;67.44
7474;BME280;3778;42.572;23.426;2023-03-25T00:38:31;94982.84;;;-146.70;67.78
7474;BME280;3778;42.572;23.426;2023-03-25T00:41:13;94928.66;;;-146.70;68.04
7474;BME280;3778;42.572;23.426;2023-03-25T00:43:44;94978.69;;;-146.70;67.94
7474;BME280;3778;42.572;23.426;2023-03-25T00:46:11;94953.66;;;-146.70;67.95
7474;BME280;3778;42.572;23.426;2023-03-25T00:48:37;94982.84;;;-146.70;68.81
7474;BME280;3778;42.572;23.426;2023-03-25T00:51:05;94947.41;;;-146.70;68.81
7474;BME280;3778;42.572;23.426;2023-03-25T00:53:35;94941.16;;;-146.70;69.10
7474;BME280;3778;42.572;23.426;2023-03-25T00:56:03;94934.91;;;-146.70;69.41
7474;BME280;3778;42.572;23.426;2023-03-25T00:58:30;94959.94;;;-146.70;69.55
7474;BME280;3778;42.572;23.426;2023-03-25T01:00:58;94980.75;;;-146.70;70.04
7474;BME280;3778;42.572;23.426;2023-03-25T01:03:25;95007.84;;;-146.70;70.66
7474;BME280;3778;42.572;23.426;2023-03-25T01:05:53;94991.19;;;-146.70;70.85
7474;BME280;3778;42.572;23.426;2023-03-25T01:08:22;95005.78;;;-146.70;71.49
7474;BME280;3778;42.572;23.426;2023-03-25T01:10:51;95020.38;;;-146.70;71.63
7474;BME280;3778;42.572;23.426;2023-03-25T01:13:18;95018.28;;;-146.70;71.68
7474;BME280;3778;42.572;23.426;2023-03-25T01:15:45;95049.53;;;-146.70;71.93
7474;BME280;3778;42.572;23.426;2023-03-25T01:18:14;95041.22;;;-146.70;71.95
7474;BME280;3778;42.572;23.426;2023-03-25T01:20:41;94995.34;;;-146.70;71.55
7474;BME280;3778;42.572;23.426;2023-03-25T01:23:08;95030.78;;;-146.70;71.57
7474;BME280;3778;42.572;23.426;2023-03-25T01:25:34;95009.94;;;-146.70;71.62
7474;BME280;3778;42.572;23.426;2023-03-25T01:28:02;95037.03;;;-146.70;71.78
7474;BME280;3778;42.572;23.426;2023-03-25T01:30:29;95012.03;;;-146.70;72.19
7474;BME280;3778;42.572;23.426;2023-03-25T01:32:55;95016.19;;;-146.70;72.11
7474;BME280;3778;42.572;23.426;2023-03-25T01:35:24;95030.78;;;-146.70;72.18
7474;BME280;3778;42.572;23.426;2023-03-25T01:37:50;95045.38;;;-146.70;72.59
7474;BME280;3778;42.572;23.426;2023-03-25T01:40:21;95078.72;;;-146.70;72.86
7474;BME280;3778;42.572;23.426;2023-03-25T01:42:50;95045.38;;;-146.70;73.36
7474;BME280;3778;42.572;23.426;2023-03-25T01:45:26;95072.47;;;-146.70;74.14
7474;BME280;3778;42.572;23.426;2023-03-25T01:48:03;95066.22;;;-146.70;74.28
7474;BME280;3778;42.572;23.426;2023-03-25T01:50:33;95062.03;;;-146.70;74.28
7474;BME280;3778;42.572;23.426;2023-03-25T01:53:02;95055.78;;;-146.70;74.17
7474;BME280;3778;42.572;23.426;2023-03-25T01:55:30;95097.47;;;-146.70;74.69
7474;BME280;3778;42.572;23.426;2023-03-25T01:58:00;95126.66;;;-146.70;74.74
7474;BME280;3778;42.572;23.426;2023-03-25T02:00:30;95057.88;;;-146.70;74.80
7474;BME280;3778;42.572;23.426;2023-03-25T02:02:58;95091.22;;;-146.70;74.81
7474;BME280;3778;42.572;23.426;2023-03-25T02:05:31;95126.66;;;-146.70;74.76
7474;BME280;3778;42.572;23.426;2023-03-25T02:08:03;95076.63;;;-146.70;74.76
7474;BME280;3778;42.572;23.426;2023-03-25T02:10:33;95078.72;;;-146.70;74.75
7474;BME280;3778;42.572;23.426;2023-03-25T02:13:01;95095.41;;;-146.70;74.96
7474;BME280;3778;42.572;23.426;2023-03-25T02:15:31;95093.31;;;-146.70;75.20
7474;BME280;3778;42.572;23.426;2023-03-25T02:18:13;95095.41;;;-146.70;75.33
7474;BME280;3778;42.572;23.426;2023-03-25T02:21:09;95116.25;;;-146.70;75.35
7474;BME280;3778;42.572;23.426;2023-03-25T02:24:09;95116.25;;;-146.70;75.61
7474;BME280;3778;42.572;23.426;2023-03-25T02:27:13;95093.31;;;-146.70;75.50
7474;BME280;3778;42.572;23.426;2023-03-25T02:29:56;95176.69;;;-146.70;75.58
7474;BME280;3778;42.572;23.426;2023-03-25T02:32:38;95112.06;;;-146.70;75.71
7474;BME280;3778;42.572;23.426;2023-03-25T02:35:23;95114.16;;;-146.70;76.06
7474;BME280;3778;42.572;23.426;2023-03-25T02:38:26;95103.72;;;-146.70;76.18
7474;BME280;3778;42.572;23.426;2023-03-25T02:40:58;95101.66;;;-146.70;76.67
7474;BME280;3778;42.572;23.426;2023-03-25T02:43:30;95172.50;;;-146.70;76.81
7474;BME280;3778;42.572;23.426;2023-03-25T02:46:00;95157.91;;;-146.70;76.90
7474;BME280;3778;42.572;23.426;2023-03-25T02:48:31;95149.59;;;-146.70;76.61
7474;BME280;3778;42.572;23.426;2023-03-25T02:51:04;95103.72;;;-146.70;76.63
7474;BME280;3778;42.572;23.426;2023-03-25T02:53:36;95130.81;;;-146.70;76.69
7474;BME280;3778;42.572;23.426;2023-03-25T02:56:07;95174.59;;;-146.70;76.93
7474;BME280;3778;42.572;23.426;2023-03-25T02:58:35;95139.16;;;-146.70;77.19
7474;BME280;3778;42.572;23.426;2023-03-25T03:01:04;95107.91;;;-146.70;77.12
7474;BME280;3778;42.572;23.426;2023-03-25T03:03:31;95068.31;;;-146.70;77.16
7474;BME280;3778;42.572;23.426;2023-03-25T03:05:59;95141.25;;;-146.70;77.31
7474;BME280;3778;42.572;23.426;2023-03-25T03:08:40;95130.81;;;-146.70;77.41
7474;BME280;3778;42.572;23.426;2023-03-25T03:11:12;95149.59;;;-146.70;77.12
7474;BME280;3778;42.572;23.426;2023-03-25T03:13:54;95141.25;;;-146.70;77.08
7474;BME280;3778;42.572;23.426;2023-03-25T03:16:28;95128.75;;;-146.70;76.91
7474;BME280;3778;42.572;23.426;2023-03-25T03:19:04;95122.50;;;-146.70;76.96
7474;BME280;3778;42.572;23.426;2023-03-25T03:21:38;95180.84;;;-146.70;77.10
7474;BME280;3778;42.572;23.426;2023-03-25T03:24:11;95149.59;;;-146.70;77.17
7474;BME280;3778;42.572;23.426;2023-03-25T03:26:45;95141.25;;;-146.70;77.24
7474;BME280;3778;42.572;23.426;2023-03-25T03:29:17;95118.31;;;-146.70;77.49
7474;BME280;3778;42.572;23.426;2023-03-25T03:31:49;95189.19;;;-146.70;77.89
7474;BME280;3778;42.572;23.426;2023-03-25T03:34:20;95137.06;;;-146.70;78.20
7474;BME280;3778;42.572;23.426;2023-03-25T03:36:51;95197.53;;;-146.70;78.73
7474;BME280;3778;42.572;23.426;2023-03-25T03:39:23;95153.75;;;-146.70;78.74
7474;BME280;3778;42.572;23.426;2023-03-25T03:41:54;95157.91;;;-146.70;78.61
7474;BME280;3778;42.572;23.426;2023-03-25T03:44:27;95226.69;;;-146.70;78.76
7474;BME280;3778;42.572;23.426;2023-03-25T03:46:59;95153.75;;;-146.70;78.61
7474;BME280;3778;42.572;23.426;2023-03-25T03:49:33;95160.00;;;-146.70;78.60
7474;BME280;3778;42.572;23.426;2023-03-25T03:52:06;95176.69;;;-146.70;78.53
7474;BME280;3778;42.572;23.426;2023-03-25T03:54:38;95153.75;;;-146.70;78.60
7474;BME280;3778;42.572;23.426;2023-03-25T03:57:11;95170.44;;;-146.70;78.82
7474;BME280;3778;42.572;23.426;2023-03-25T03:59:44;95170.44;;;-146.70;79.08
7474;BME280;3778;42.572;23.426;2023-03-25T04:02:16;95228.78;;;-146.70;79.41
7474;BME280;3778;42.572;23.426;2023-03-25T04:04:47;95168.34;;;-146.70;79.45
7474;BME280;3778;42.572;23.426;2023-03-25T04:07:16;95239.22;;;-146.70;79.52
7474;BME280;3778;42.572;23.426;2023-03-25T04:09:52;95180.84;;;-146.70;79.50
7474;BME280;3778;42.572;23.426;2023-03-25T04:12:24;95120.41;;;-146.70;79.17
7474;BME280;3778;42.572;23.426;2023-03-25T04:14:53;95224.63;;;-146.70;79.24
7474;BME280;3778;42.572;23.426;2023-03-25T04:17:20;95170.44;;;-146.70;78.92
7474;BME280;3778;42.572;23.426;2023-03-25T04:19:47;95210.03;;;-146.70;79.01
7474;BME280;3778;42.572;23.426;2023-03-25T04:22:18;95197.53;;;-146.70;79.02
7474;BME280;3778;42.572;23.426;2023-03-25T04:24:47;95195.44;;;-146.70;79.04
7474;BME280;3778;42.572;23.426;2023-03-25T04:27:17;95182.94;;;-146.70;79.40
7474;BME280;3778;42.572;23.426;2023-03-25T04:29:44;95195.44;;;-146.70;79.32
7474;BME280;3778;42.572;23.426;2023-03-25T04:32:12;95245.47;;;-146.70;79.37
7474;BME280;3778;42.572;23.426;2023-03-25T04:34:39;95207.94;;;-146.70;79.52
7474;BME280;3778;42.572;23.426;2023-03-25T04:37:05;95191.28;;;-146.70;80.05
7474;BME280;3778;42.572;23.426;2023-03-25T04:39:32;95207.94;;;-146.70;80.35
7474;BME280;3778;42.572;23.426;2023-03-25T04:42:00;95222.53;;;-146.70;80.43
7474;BME280;3778;42.572;23.426;2023-03-25T04:44:27;95235.03;;;-146.70;80.56
7474;BME280;3778;42.572;23.426;2023-03-25T04:46:58;95278.81;;;-146.70;80.95
7474;BME280;3778;42.572;23.426;2023-03-25T04:49:26;95187.09;;;-146.70;81.34
7474;BME280;3778;42.572;23.426;2023-03-25T04:51:53;95214.19;;;-146.70;81.30
7474;BME280;3778;42.572;23.426;2023-03-25T04:54:21;95218.38;;;-146.70;81.17
7474;BME280;3778;42.572;23.426;2023-03-25T04:56:49;95205.84;;;-146.70;80.85
7474;BME280;3778;42.572;23.426;2023-03-25T04:59:18;95245.47;;;-146.70;80.42
7474;BME280;3778;42.572;23.426;2023-03-25T05:01:46;95218.38;;;-146.70;80.33
7474;BME280;3778;42.572;23.426;2023-03-25T05:04:14;95212.13;;;-146.70;80.07
7474;BME280;3778;42.572;23.426;2023-03-25T05:06:43;95255.88;;;-146.70;80.21
7474;BME280;3778;42.572;23.426;2023-03-25T05:09:13;95195.44;;;-146.70;80.52
7474;BME280;3778;42.572;23.426;2023-03-25T05:11:40;95245.47;;;-146.70;80.81
7474;BME280;3778;42.572;23.426;2023-03-25T05:14:08;95222.53;;;-146.70;80.74
7474;BME280;3778;42.572;23.426;2023-03-25T05:16:37;95201.69;;;-146.70;80.60
7474;BME280;3778;42.572;23.426;2023-03-25T05:19:04;95218.38;;;-146.70;80.39
7474;BME280;3778;42.572;23.426;2023-03-25T05:21:31;95230.88;;;-146.70;80.33
7474;BME280;3778;42.572;23.426;2023-03-25T05:24:00;95170.44;;;-146.70;79.61
7474;BME280;3778;42.572;23.426;2023-03-25T05:26:27;95147.50;;;-146.70;78.94
7474;BME280;3778;42.572;23.426;2023-03-25T05:28:59;95195.44;;;-146.70;78.45
7474;BME280;3778;42.572;23.426;2023-03-25T05:31:25;95164.19;;;-146.70;78.40
7474;BME280;3778;42.572;23.426;2023-03-25T05:33:53;95141.25;;;-146.70;77.92
7474;BME280;3778;42.572;23.426;2023-03-25T05:36:20;95091.22;;;-146.70;77.40
7474;BME280;3778;42.572;23.426;2023-03-25T05:38:49;95107.91;;;-146.70;76.94
7474;BME280;3778;42.572;23.426;2023-03-25T05:41:19;95143.34;;;-146.70;76.24
7474;BME280;3778;42.572;23.426;2023-03-25T05:43:47;95141.25;;;-146.70;75.51
7474;BME280;3778;42.572;23.426;2023-03-25T05:46:17;95084.97;;;-146.70;75.05
7474;BME280;3778;42.572;23.426;2023-03-25T05:48:44;95072.47;;;-146.70;74.66
7474;BME280;3778;42.572;23.426;2023-03-25T05:51:14;95095.41;;;-146.70;74.49
7474;BME280;3778;42.572;23.426;2023-03-25T05:53:42;95128.75;;;-146.70;74.16
7474;BME280;3778;42.572;23.426;2023-03-25T05:56:09;95089.13;;;-146.70;73.81
7474;BME280;3778;42.572;23.426;2023-03-25T05:58:37;95055.78;;;-146.70;73.31
7474;BME280;3778;42.572;23.426;2023-03-25T06:01:04;95049.53;;;-146.70;72.72
7474;BME280;3778;42.572;23.426;2023-03-25T06:03:31;95026.63;;;-146.70;72.31
7474;BME280;3778;42.572;23.426;2023-03-25T06:05:59;94987.03;;;-146.70;71.60
7474;BME280;3778;42.572;23.426;2023-03-25T06:08:27;95012.03;;;-146.70;70.71
7474;BME280;3778;42.572;23.426;2023-03-25T06:10:54;95005.78;;;-146.70;70.52
7474;BME280;3778;42.572;23.426;2023-03-25T06:13:25;94982.84;;;-146.70;70.58
7474;BME280;3778;42.572;23.426;2023-03-25T06:15:51;94957.84;;;-146.70;69.66
7474;BME280;3778;42.572;23.426;2023-03-25T06:18:21;94970.34;;;-146.70;69.04
7474;BME280;3778;42.572;23.426;2023-03-25T06:20:50;94928.66;;;-146.70;68.51
7474;BME280;3778;42.572;23.426;2023-03-25T06:23:18;94945.34;;;-146.70;68.22
7474;BME280;3778;42.572;23.426;2023-03-25T06:25:48;94909.91;;;-146.70;67.92
7474;BME280;3778;42.572;23.426;2023-03-25T06:28:14;94899.47;;;-146.70;67.38
7474;BME280;3778;42.572;23.426;2023-03-25T06:30:43;94897.41;;;-146.70;66.90
7474;BME280;3778;42.572;23.426;2023-03-25T06:33:10;94872.41;;;-146.70;66.40
7474;BME280;3778;42.572;23.426;2023-03-25T06:35:38;94859.88;;;-146.70;65.82
7474;BME280;3778;42.572;23.426;2023-03-25T06:38:06;94839.03;;;-146.70;65.38
7474;BME280;3778;42.572;23.426;2023-03-25T06:40:34;94824.47;;;-146.70;64.81
7474;BME280;3778;42.572;23.426;2023-03-25T06:43:04;94949.50;;;-146.70;64.53
7474;BME280;3778;42.572;23.426;2023-03-25T06:45:31;94803.63;;;-146.70;63.94
7474;BME280;3778;42.572;23.426;2023-03-25T06:47:58;94757.78;;;-146.70;63.62
7474;BME280;3778;42.572;23.426;2023-03-25T06:50:25;94761.94;;;-146.70;63.13
7474;BME280;3778;42.572;23.426;2023-03-25T06:52:52;94695.25;;;-146.70;62.69
7474;BME280;3778;42.572;23.426;2023-03-25T06:55:19;94745.25;;;-146.70;62.31
7474;BME280;3778;42.572;23.426;2023-03-25T06:57:45;94718.16;;;-146.70;61.30
7474;BME280;3778;42.572;23.426;2023-03-25T07:00:14;94682.75;;;-146.70;60.68
7474;BME280;3778;42.572;23.426;2023-03-25T07:02:44;94653.56;;;-146.70;60.47
7474;BME280;3778;42.572;23.426;2023-03-25T07:05:11;94649.41;;;-146.70;60.16
7474;BME280;3778;42.572;23.426;2023-03-25T07:07:38;94641.06;;;-146.70;60.78
7474;BME280;3778;42.572;23.426;2023-03-25T07:10:05;94616.06;;;-146.70;60.21
7474;BME280;3778;42.572;23.426;2023-03-25T07:12:33;94628.56;;;-146.70;59.36
7474;BME280;3778;42.572;23.426;2023-03-25T07:15:00;94566.03;;;-146.70;58.43
7474;BME280;3778;42.572;23.426;2023-03-25T07:17:28;94551.47;;;-146.70;59.28
7474;BME280;3778;42.572;23.426;2023-03-25T07:19:54;94568.13;;;-146.70;57.98
7474;BME280;3778;42.572;23.426;2023-03-25T07:22:21;94545.19;;;-146.70;58.50
7474;BME280;3778;42.572;23.426;2023-03-25T07:24:48;94499.34;;;-146.70;57.43
7474;BME280;3778;42.572;23.426;2023-03-25T07:27:16;94493.09;;;-146.70;57.25
7474;BME280;3778;42.572;23.426;2023-03-25T07:29:43;94459.75;;;-146.70;55.56
7474;BME280;3778;42.572;23.426;2023-03-25T07:32:10;94453.50;;;-146.70;55.99
7474;BME280;3778;42.572;23.426;2023-03-25T07:34:38;94407.66;;;-146.70;55.24
7474;BME280;3778;42.572;23.426;2023-03-25T07:37:05;94374.31;;;-146.70;55.04
7474;BME280;3778;42.572;23.426;2023-03-25T07:39:32;94347.25;;;-146.70;55.14
7474;BME280;3778;42.572;23.426;2023-03-25T07:41:59;94370.16;;;-146.70;53.88
7474;BME280;3778;42.572;23.426;2023-03-25T07:44:26;94353.50;;;-146.70;53.08
7474;BME280;3778;42.572;23.426;2023-03-25T07:46:52;94330.56;;;-146.70;53.69
7474;BME280;3778;42.572;23.426;2023-03-25T07:49:19;94366.00;;;-146.70;55.50
7474;BME280;3778;42.572;23.426;2023-03-25T07:51:47;94307.66;;;-146.70;54.10
7474;BME280;3778;42.572;23.426;2023-03-25T07:54:14;94345.16;;;-146.70;53.76
7474;BME280;3778;42.572;23.426;2023-03-25T07:56:41;94351.41;;;-146.70;52.52
7474;BME280;3778;42.572;23.426;2023-03-25T07:59:07;94280.56;;;-146.70;51.54
7474;BME280;3778;42.572;23.426;2023-03-25T08:01:34;94299.31;;;-146.70;51.96
7474;BME280;3778;42.572;23.426;2023-03-25T08:04:01;94238.88;;;-146.70;52.69
7474;BME280;3778;42.572;23.426;2023-03-25T08:06:28;94249.28;;;-146.70;51.41
7474;BME280;3778;42.572;23.426;2023-03-25T08:08:56;94272.22;;;-146.70;52.12
7474;BME280;3778;42.572;23.426;2023-03-25T08:11:23;94203.47;;;-146.70;51.52
7474;BME280;3778;42.572;23.426;2023-03-25T08:13:50;94178.44;;;-146.70;51.23
7474;BME280;3778;42.572;23.426;2023-03-25T08:16:16;94182.63;;;-146.70;50.45
7474;BME280;3778;42.572;23.426;2023-03-25T08:18:43;94157.63;;;-146.70;50.76
7474;BME280;3778;42.572;23.426;2023-03-25T08:21:10;94122.19;;;-146.70;49.68
7474;BME280;3778;42.572;23.426;2023-03-25T08:23:37;94128.44;;;-146.70;48.93
7474;BME280;3778;42.572;23.426;2023-03-25T08:26:05;94107.59;;;-146.70;49.21
7474;BME280;3778;42.572;23.426;2023-03-25T08:28:32;94090.94;;;-146.70;47.58
7474;BME280;3778;42.572;23.426;2023-03-25T08:30:59;94063.84;;;-146.70;48.66
7474;BME280;3778;42.572;23.426;2023-03-25T08:33:27;94103.44;;;-146.70;48.15
7474;BME280;3778;42.572;23.426;2023-03-25T08:35:59;94084.69;;;-146.70;48.34
7474;BME280;3778;42.572;23.426;2023-03-25T08:38:26;94107.59;;;-146.70;49.14
7474;BME280;3778;42.572;23.426;2023-03-25T08:40:56;94093.03;;;-146.70;48.44
7474;BME280;3778;42.572;23.426;2023-03-25T08:43:24;94055.50;;;-146.70;50.78
7474;BME280;3778;42.572;23.426;2023-03-25T08:45:51;94047.19;;;-146.70;48.87
7474;BME280;3778;42.572;23.426;2023-03-25T08:48:18;94057.59;;;-146.70;49.05
7474;BME280;3778;42.572;23.426;2023-03-25T08:50:44;94053.44;;;-146.70;49.32
7474;BME280;3778;42.572;23.426;2023-03-25T08:53:11;94007.59;;;-146.70;47.86
7474;BME280;3778;42.572;23.426;2023-03-25T08:55:38;93980.50;;;-146.70;45.81
7474;BME280;3778;42.572;23.426;2023-03-25T08:58:05;93968.00;;;-146.70;45.10
7474;BME280;3778;42.572;23.426;2023-03-25T09:00:34;93978.41;;;-146.70;45.52
7474;BME280;3778;42.572;23.426;2023-03-25T09:03:02;93980.50;;;-146.70;44.61
7474;BME280;3778;42.572;23.426;2023-03-25T09:05:29;93932.56;;;-146.70;46.56
7474;BME280;3778;42.572;23.426;2023-03-25T09:07:56;93849.22;;;-146.70;44.84
7474;BME280;3778;42.572;23.426;2023-03-25T09:10:22;93859.66;;;-146.70;44.34
7474;BME280;3778;42.572;23.426;2023-03-25T09:12:49;93803.41;;;-146.70;46.30
7474;BME280;3778;42.572;23.426;2023-03-25T09:15:17;93813.81;;;-146.70;41.76
7474;BME280;3778;42.572;23.426;2023-03-25T09:17:45;93786.72;;;-146.70;41.50
7474;BME280;3778;42.572;23.426;2023-03-25T09:20:12;93772.16;;;-146.70;42.15
7474;BME280;3778;42.572;23.426;2023-03-25T09:22:40;93786.72;;;-146.70;42.09
7474;BME280;3778;42.572;23.426;2023-03-25T09:25:07;93824.22;;;-146.70;42.21
7474;BME280;3778;42.572;23.426;2023-03-25T09:27:35;93815.91;;;-146.70;42.74
7474;BME280;3778;42.572;23.426;2023-03-25T09:30:02;93782.56;;;-146.70;42.72
7474;BME280;3778;42.572;23.426;2023-03-25T09:32:30;93795.06;;;-146.70;42.26
7474;BME280;3778;42.572;23.426;2023-03-25T09:34:58;93782.56;;;-146.70;42.72
7474;BME280;3778;42.572;23.426;2023-03-25T09:37:24;93770.06;;;-146.70;43.48
7474;BME280;3778;42.572;23.426;2023-03-25T09:39:51;93772.16;;;-146.70;44.27
7474;BME280;3778;42.572;23.426;2023-03-25T09:42:34;93772.16;;;-146.70;44.14
7474;BME280;3778;42.572;23.426;2023-03-25T09:45:16;93792.97;;;-146.70;42.89
7474;BME280;3778;42.572;23.426;2023-03-25T09:47:53;93732.56;;;-146.70;42.33
7474;BME280;3778;42.572;23.426;2023-03-25T09:50:24;93782.56;;;-146.70;43.94
7474;BME280;3778;42.572;23.426;2023-03-25T09:52:54;93732.56;;;-146.70;44.58
7474;BME280;3778;42.572;23.426;2023-03-25T09:55:25;93651.31;;;-146.70;43.91
7474;BME280;3778;42.572;23.426;2023-03-25T09:57:59;93657.56;;;-146.70;40.59
7474;BME280;3778;42.572;23.426;2023-03-25T10:00:27;93659.63;;;-146.70;41.01
7474;BME280;3778;42.572;23.426;2023-03-25T10:03:02;93611.72;;;-146.70;41.44
7474;BME280;3778;42.572;23.426;2023-03-25T10:05:49;93605.47;;;-146.70;41.48
7474;BME280;3778;42.572;23.426;2023-03-25T10:08:29;93642.97;;;-146.70;41.89
7474;BME280;3778;42.572;23.426;2023-03-25T10:11:04;93620.06;;;-146.70;41.86
7474;BME280;3778;42.572;23.426;2023-03-25T10:13:39;93595.03;;;-146.70;41.74
7474;BME280;3778;42.572;23.426;2023-03-25T10:16:19;93588.78;;;-146.70;42.59
7474;BME280;3778;42.572;23.426;2023-03-25T10:18:58;93557.53;;;-146.70;41.52
7474;BME280;3778;42.572;23.426;2023-03-25T10:21:37;93528.38;;;-146.70;41.52
7474;BME280;3778;42.572;23.426;2023-03-25T10:24:16;93567.97;;;-146.70;41.61
7474;BME280;3778;42.572;23.426;2023-03-25T10:26:47;93542.97;;;-146.70;41.26
7474;BME280;3778;42.572;23.426;2023-03-25T10:29:17;93599.22;;;-146.70;41.47
7474;BME280;3778;42.572;23.426;2023-03-25T10:31:49;93576.28;;;-146.70;41.58
7474;BME280;3778;42.572;23.426;2023-03-25T10:34:19;93636.72;;;-146.70;41.87
7474;BME280;3778;42.572;23.426;2023-03-25T10:36:52;93624.22;;;-146.70;42.18
7474;BME280;3778;42.572;23.426;2023-03-25T10:39:21;93615.88;;;-146.70;42.54
7474;BME280;3778;42.572;23.426;2023-03-25T10:41:51;93640.88;;;-146.70;42.33
7474;BME280;3778;42.572;23.426;2023-03-25T10:44:21;93595.03;;;-146.70;41.87
7474;BME280;3778;42.572;23.426;2023-03-25T10:46:57;93615.88;;;-146.70;42.55
7474;BME280;3778;42.572;23.426;2023-03-25T10:49:28;93590.88;;;-146.70;41.98
7474;BME280;3778;42.572;23.426;2023-03-25T10:51:58;93557.53;;;-146.70;41.60
7474;BME280;3778;42.572;23.426;2023-03-25T10:54:28;93555.47;;;-146.70;41.81
7474;BME280;3778;42.572;23.426;2023-03-25T10:56:58;93592.97;;;-146.70;40.85
7474;BME280;3778;42.572;23.426;2023-03-25T10:59:30;93528.38;;;-146.70;41.31
7474;BME280;3778;42.572;23.426;2023-03-25T11:02:02;93557.53;;;-146.70;41.11
7474;BME280;3778;42.572;23.426;2023-03-25T11:04:37;93480.47;;;-146.70;40.78
7474;BME280;3778;42.572;23.426;2023-03-25T11:07:15;93499.22;;;-146.70;40.68
7474;BME280;3778;42.572;23.426;2023-03-25T11:09:44;93459.63;;;-146.70;40.33
7474;BME280;3778;42.572;23.426;2023-03-25T11:12:11;93449.22;;;-146.70;39.41
7474;BME280;3778;42.572;23.426;2023-03-25T11:14:39;93417.97;;;-146.70;38.90
7474;BME280;3778;42.572;23.426;2023-03-25T11:17:10;93453.38;;;-146.70;38.45
7474;BME280;3778;42.572;23.426;2023-03-25T11:19:43;93353.38;;;-146.70;39.04
7474;BME280;3778;42.572;23.426;2023-03-25T11:22:17;93376.28;;;-146.70;38.07
7474;BME280;3778;42.572;23.426;2023-03-25T11:24:47;93347.13;;;-146.70;38.32
7474;BME280;3778;42.572;23.426;2023-03-25T11:27:17;93307.53;;;-146.70;37.07
7474;BME280;3778;42.572;23.426;2023-03-25T11:29:50;93353.38;;;-146.70;37.48
7474;BME280;3778;42.572;23.426;2023-03-25T11:32:22;93370.03;;;-146.70;38.13
7474;BME280;3778;42.572;23.426;2023-03-25T11:34:52;93382.53;;;-146.70;37.42
7474;BME280;3778;42.572;23.426;2023-03-25T11:37:22;93349.22;;;-146.70;37.30
7474;BME280;3778;42.572;23.426;2023-03-25T11:39:50;93324.22;;;-146.70;36.73
7474;BME280;3778;42.572;23.426;2023-03-25T11:42:27;93330.47;;;-146.70;37.02
7474;BME280;3778;42.572;23.426;2023-03-25T11:44:58;93320.03;;;-146.70;38.53
7474;BME280;3778;42.572;23.426;2023-03-25T11:47:29;93288.78;;;-146.70;35.92
7474;BME280;3778;42.572;23.426;2023-03-25T11:49:57;93349.22;;;-146.70;36.28
7474;BME280;3778;42.572;23.426;2023-03-25T11:52:26;93276.28;;;-146.70;36.15
7474;BME280;3778;42.572;23.426;2023-03-25T11:54:57;93236.72;;;-146.70;35.61
7474;BME280;3778;42.572;23.426;2023-03-25T11:57:29;93215.88;;;-146.70;35.61
7474;BME280;3778;42.572;23.426;2023-03-25T12:00:00;93270.03;;;-146.70;35.92
7474;BME280;3778;42.572;23.426;2023-03-25T12:02:36;93215.88;;;-146.70;35.75
7474;BME280;3778;42.572;23.426;2023-03-25T12:05:11;93124.22;;;-146.70;34.97
7474;BME280;3778;42.572;23.426;2023-03-25T12:07:41;93140.88;;;-146.70;35.02
7474;BME280;3778;42.572;23.426;2023-03-25T12:10:15;93051.31;;;-146.70;35.24
7474;BME280;3778;42.572;23.426;2023-03-25T12:12:50;93095.06;;;-146.70;36.06
7474;BME280;3778;42.572;23.426;2023-03-25T12:15:26;92965.91;;;-146.70;34.65
7474;BME280;3778;42.572;23.426;2023-03-25T12:18:08;93080.47;;;-146.70;34.84
7474;BME280;3778;42.572;23.426;2023-03-25T12:20:49;92980.47;;;-146.70;35.34
7474;BME280;3778;42.572;23.426;2023-03-25T12:23:29;93059.63;;;-146.70;34.56
7474;BME280;3778;42.572;23.426;2023-03-25T12:26:06;93205.47;;;-146.70;35.02
7474;BME280;3778;42.572;23.426;2023-03-25T12:28:57;93215.88;;;-146.70;35.29
7474;BME280;3778;42.572;23.426;2023-03-25T12:31:37;93213.78;;;-146.70;35.45
7474;BME280;3778;42.572;23.426;2023-03-25T12:34:14;93267.97;;;-146.70;35.70
7474;BME280;3778;42.572;23.426;2023-03-25T12:36:53;93236.72;;;-146.70;35.45
7474;BME280;3778;42.572;23.426;2023-03-25T12:39:39;93238.78;;;-146.70;35.17
7474;BME280;3778;42.572;23.426;2023-03-25T12:42:14;93245.03;;;-146.70;35.11
7474;BME280;3778;42.572;23.426;2023-03-25T12:44:59;93263.78;;;-146.70;34.92
7474;BME280;3778;42.572;23.426;2023-03-25T12:47:33;93278.38;;;-146.70;34.87
7474;BME280;3778;42.572;23.426;2023-03-25T12:50:11;93265.88;;;-146.70;35.17
7474;BME280;3778;42.572;23.426;2023-03-25T12:52:45;93247.13;;;-146.70;35.31
7474;BME280;3778;42.572;23.426;2023-03-25T12:55:32;93222.13;;;-146.70;34.73
7474;BME280;3778;42.572;23.426;2023-03-25T12:58:21;93257.53;;;-146.70;34.70
7474;BME280;3778;42.572;23.426;2023-03-25T13:00:57;93326.28;;;-146.70;35.00
7474;BME280;3778;42.572;23.426;2023-03-25T13:06:27;93357.53;;;-146.70;35.37
7474;BME280;3778;42.572;23.426;2023-03-25T13:08:58;93355.47;;;-146.70;35.71
7474;BME280;3778;42.572;23.426;2023-03-25T13:11:32;93367.97;;;-146.70;35.48